createdAt,value
2023-04-10T00:01:07.864Z,19.37
2023-04-10T00:03:34.583Z,21.13
2023-04-10T00:06:01.370Z,17.93
2023-04-10T00:08:27.995Z,19.27
2023-04-10T00:10:54.732Z,20.77
2023-04-10T00:13:21.374Z,18.77
2023-04-10T00:15:48.532Z,20.30
2023-04-10T00:18:15.396Z,19.57
2023-04-10T00:20:42.656Z,20.87
2023-04-10T00:23:09.674Z,21.10
2023-04-10T00:25:36.294Z,20.47
2023-04-10T00:28:02.903Z,20.60
2023-04-10T00:30:29.534Z,19.90
2023-04-10T00:32:56.191Z,21.13
2023-04-10T00:35:22.828Z,20.40
2023-04-10T00:37:50.941Z,18.77
2023-04-10T00:40:17.559Z,21.00
2023-04-10T00:42:44.171Z,19.43
2023-04-10T00:45:11.541Z,21.43
2023-04-10T00:47:38.341Z,21.10
2023-04-10T00:50:06.373Z,21.60
2023-04-10T00:52:33.318Z,22.63
2023-04-10T00:55:00.071Z,20.77
2023-04-10T00:57:27.500Z,20.07
2023-04-10T00:59:54.460Z,19.60
2023-04-10T01:06:16.515Z,20.67
2023-04-10T01:09:04.757Z,20.33
2023-04-10T01:11:48.139Z,20.07
2023-04-10T01:14:37.930Z,19.87
2023-04-10T01:17:08.560Z,19.10
2023-04-10T01:20:16.709Z,19.67
2023-04-10T01:23:12.342Z,17.60
2023-04-10T01:25:51.075Z,20.30
2023-04-10T01:28:35.990Z,19.90
2023-04-10T01:31:03.442Z,19.77
2023-04-10T01:33:45.497Z,19.73
2023-04-10T01:36:13.093Z,20.33
2023-04-10T01:38:44.120Z,20.27
2023-04-10T01:41:10.730Z,21.00
2023-04-10T01:43:40.419Z,19.80
2023-04-10T01:46:07.456Z,20.57
2023-04-10T01:48:34.375Z,18.63
2023-04-10T01:51:06.958Z,18.53
2023-04-10T01:53:35.714Z,20.07
2023-04-10T01:56:03.223Z,21.27
2023-04-10T01:58:30.560Z,20.80
2023-04-10T02:00:57.173Z,19.77
2023-04-10T02:03:24.040Z,18.60
2023-04-10T02:06:17.824Z,20.73
2023-04-10T02:08:53.750Z,21.33
2023-04-10T02:11:26.408Z,19.00
2023-04-10T02:13:54.008Z,20.10
2023-04-10T02:16:22.714Z,19.90
2023-04-10T02:18:50.580Z,19.23
2023-04-10T02:21:17.405Z,19.10
2023-04-10T02:23:44.233Z,19.63
2023-04-10T02:26:10.926Z,20.97
2023-04-10T02:28:40.657Z,18.30
2023-04-10T02:31:07.749Z,18.77
2023-04-10T02:33:34.399Z,19.40
2023-04-10T02:36:01.716Z,19.60
2023-04-10T02:38:28.346Z,19.43
2023-04-10T02:40:54.979Z,19.70
2023-04-10T02:43:21.612Z,20.70
2023-04-10T02:45:48.272Z,21.57
2023-04-10T02:48:15.008Z,20.90
2023-04-10T02:50:46.045Z,19.47
2023-04-10T02:53:15.564Z,19.83
2023-04-10T02:55:42.620Z,20.30
2023-04-10T02:58:09.674Z,21.60
2023-04-10T03:00:36.346Z,20.80
2023-04-10T03:03:03.169Z,19.43
2023-04-10T03:05:30.294Z,19.20
2023-04-10T03:07:56.930Z,19.10
2023-04-10T03:10:24.733Z,20.73
2023-04-10T03:12:51.378Z,18.33
2023-04-10T03:15:18.263Z,19.17
2023-04-10T03:17:44.971Z,20.70
2023-04-10T03:20:12.096Z,20.10
2023-04-10T03:22:39.643Z,20.13
2023-04-10T03:25:06.767Z,18.60
2023-04-10T03:27:34.869Z,21.07
2023-04-10T03:30:02.690Z,20.70
2023-04-10T03:32:31.162Z,20.43
2023-04-10T03:34:59.144Z,19.63
2023-04-10T03:37:27.550Z,19.50
2023-04-10T03:39:54.201Z,18.47
2023-04-10T03:42:20.797Z,20.50
2023-04-10T03:44:47.453Z,19.00
2023-04-10T03:47:14.109Z,21.40
2023-04-10T03:49:40.747Z,22.23
2023-04-10T03:52:07.414Z,21.00
2023-04-10T03:54:34.038Z,19.20
2023-04-10T03:57:01.543Z,18.90
2023-04-10T03:59:37.926Z,20.00
2023-04-10T04:02:06.995Z,20.53
2023-04-10T04:04:33.755Z,18.60
2023-04-10T04:07:00.575Z,19.60
2023-04-10T04:09:27.228Z,20.27
2023-04-10T04:11:53.850Z,18.40
2023-04-10T04:14:20.556Z,20.00
2023-04-10T04:16:47.371Z,20.23
2023-04-10T04:19:14.089Z,19.60
2023-04-10T04:21:40.674Z,21.30
2023-04-10T04:24:07.388Z,19.90
2023-04-10T04:26:34.150Z,19.87
2023-04-10T04:29:00.760Z,18.70
2023-04-10T04:31:32.412Z,20.07
2023-04-10T04:34:00.009Z,21.30
2023-04-10T04:36:27.747Z,20.70
2023-04-10T04:38:54.954Z,20.37
2023-04-10T04:41:22.072Z,19.87
2023-04-10T04:43:49.456Z,19.50
2023-04-10T04:46:16.155Z,19.70
2023-04-10T04:48:42.816Z,20.43
2023-04-10T04:51:09.458Z,20.57
2023-04-10T04:53:36.856Z,20.87
2023-04-10T04:56:03.691Z,20.07
2023-04-10T04:58:30.359Z,20.40
2023-04-10T05:00:57.026Z,19.30
2023-04-10T05:03:23.907Z,20.67
2023-04-10T05:05:50.705Z,18.10
2023-04-10T05:08:17.445Z,21.00
2023-04-10T05:10:44.072Z,19.93
2023-04-10T05:13:10.855Z,20.20
2023-04-10T05:15:37.813Z,19.47
2023-04-10T05:18:04.725Z,19.40
2023-04-10T05:20:31.504Z,18.77
2023-04-10T05:22:58.214Z,21.07
2023-04-10T05:25:24.920Z,21.17
2023-04-10T05:27:51.523Z,20.07
2023-04-10T05:30:18.216Z,22.30
2023-04-10T05:32:46.145Z,19.90
2023-04-10T05:35:12.886Z,22.00
2023-04-10T05:37:39.475Z,21.93
2023-04-10T05:40:07.303Z,18.70
2023-04-10T05:42:33.899Z,19.97
2023-04-10T05:45:00.513Z,19.10
2023-04-10T05:47:27.210Z,19.23
2023-04-10T05:49:53.958Z,20.20
2023-04-10T05:52:20.677Z,21.17
2023-04-10T05:54:47.329Z,20.77
2023-04-10T05:57:14.055Z,16.43
2023-04-10T05:59:41.061Z,20.60
2023-04-10T06:02:07.773Z,20.63
2023-04-10T06:04:34.672Z,19.60
2023-04-10T06:07:01.637Z,19.87
2023-04-10T06:09:28.306Z,19.50
2023-04-10T06:11:54.924Z,19.67
2023-04-10T06:14:21.518Z,19.47
2023-04-10T06:16:48.148Z,19.37
2023-04-10T06:19:14.796Z,18.10
2023-04-10T06:21:41.378Z,17.47
2023-04-10T06:24:07.991Z,21.47
2023-04-10T06:26:34.656Z,20.27
2023-04-10T06:29:01.318Z,21.33
2023-04-10T06:31:28.126Z,20.57
2023-04-10T06:33:55.655Z,20.60
2023-04-10T06:36:22.441Z,18.47
2023-04-10T06:38:49.018Z,19.80
2023-04-10T06:41:15.756Z,21.10
2023-04-10T06:43:42.358Z,20.10
2023-04-10T06:46:08.988Z,21.60
2023-04-10T06:48:35.714Z,19.77
2023-04-10T06:51:02.594Z,19.67
2023-04-10T06:53:29.556Z,19.53
2023-04-10T06:55:56.933Z,20.00
2023-04-10T06:58:24.480Z,19.67
2023-04-10T07:00:51.169Z,21.10
2023-04-10T07:03:18.057Z,21.10
2023-04-10T07:05:44.704Z,19.83
2023-04-10T07:08:11.452Z,21.10
2023-04-10T07:10:38.135Z,20.20
2023-04-10T07:13:04.746Z,21.00
2023-04-10T07:15:31.495Z,21.73
2023-04-10T07:17:58.206Z,18.90
2023-04-10T07:20:24.982Z,19.90
2023-04-10T07:22:51.642Z,22.20
2023-04-10T07:25:18.469Z,21.60
2023-04-10T07:27:45.143Z,22.37
2023-04-10T07:30:13.577Z,20.30
2023-04-10T07:32:42.128Z,20.77
2023-04-10T07:35:09.440Z,20.13
2023-04-10T07:37:36.164Z,20.53
2023-04-10T07:40:03.252Z,20.77
2023-04-10T07:42:30.368Z,20.07
2023-04-10T07:44:57.355Z,19.80
2023-04-10T07:47:24.422Z,19.33
2023-04-10T07:49:51.174Z,20.60
2023-04-10T07:52:17.870Z,21.33
2023-04-10T07:54:44.613Z,18.07
2023-04-10T07:57:11.251Z,19.20
2023-04-10T07:59:37.841Z,20.00
2023-04-10T08:02:04.636Z,20.53
2023-04-10T08:04:31.763Z,19.77
2023-04-10T08:06:58.601Z,20.07
2023-04-10T08:09:25.325Z,19.10
2023-04-10T08:11:51.979Z,20.63
2023-04-10T08:14:18.783Z,19.80
2023-04-10T08:16:45.630Z,18.30
2023-04-10T08:19:12.445Z,18.67
2023-04-10T08:21:39.066Z,18.60
2023-04-10T08:24:05.847Z,19.73
2023-04-10T08:26:32.520Z,20.30
2023-04-10T08:29:00.669Z,19.07
2023-04-10T08:31:28.857Z,17.30
2023-04-10T08:33:56.780Z,20.80
2023-04-10T08:36:23.941Z,23.83
2023-04-10T08:38:50.616Z,19.30
2023-04-10T08:41:19.009Z,21.20
2023-04-10T08:43:46.243Z,20.57
2023-04-10T08:46:14.396Z,22.20
2023-04-10T08:49:03.395Z,20.20
2023-04-10T08:51:41.425Z,18.67
2023-04-10T08:54:14.192Z,20.03
2023-04-10T08:56:46.906Z,16.33
2023-04-10T08:59:13.720Z,19.90
2023-04-10T09:01:41.013Z,17.77
2023-04-10T09:04:07.991Z,18.07
2023-04-10T09:06:34.750Z,17.90
2023-04-10T09:12:01.074Z,20.47
2023-04-10T09:14:34.915Z,14.80
2023-04-10T09:17:22.590Z,16.83
2023-04-10T09:19:55.124Z,14.87
2023-04-10T09:22:32.916Z,25.77
2023-04-10T09:25:00.616Z,19.60
2023-04-10T09:27:38.607Z,18.57
2023-04-10T09:30:07.216Z,15.10
2023-04-10T09:32:49.273Z,14.83
2023-04-10T09:35:16.107Z,15.90
2023-04-10T09:37:45.830Z,14.07
2023-04-10T09:40:24.384Z,16.07
2023-04-10T09:42:51.502Z,14.90
2023-04-10T09:45:20.405Z,13.03
2023-04-10T09:48:08.163Z,13.43
2023-04-10T09:50:40.653Z,13.97
2023-04-10T09:53:08.896Z,13.47
2023-04-10T09:55:36.967Z,12.00
2023-04-10T09:58:05.513Z,11.73
2023-04-10T10:00:38.685Z,11.37
2023-04-10T10:03:09.261Z,11.60
2023-04-10T10:05:39.230Z,10.13
2023-04-10T10:08:06.774Z,10.77
2023-04-10T10:10:33.698Z,10.10
2023-04-10T10:13:02.574Z,10.40
2023-04-10T10:15:47.960Z,9.73
2023-04-10T10:18:43.888Z,9.10
2023-04-10T10:21:11.017Z,10.37
2023-04-10T10:23:38.432Z,11.57
2023-04-10T10:26:06.675Z,10.03
2023-04-10T10:28:34.703Z,9.67
2023-04-10T10:31:03.417Z,10.93
2023-04-10T10:33:30.810Z,10.00
2023-04-10T10:36:00.908Z,9.10
2023-04-10T10:38:28.248Z,9.20
2023-04-10T10:41:21.371Z,8.67
2023-04-10T10:44:00.329Z,8.47
2023-04-10T10:46:39.727Z,8.50
2023-04-10T10:49:06.351Z,7.13
2023-04-10T10:51:50.574Z,8.50
2023-04-10T10:54:32.925Z,8.10
2023-04-10T10:57:00.628Z,8.13
2023-04-10T10:59:45.908Z,9.40
2023-04-10T11:02:16.775Z,9.30
2023-04-10T11:04:45.784Z,7.57
2023-04-10T11:07:13.457Z,7.60
2023-04-10T11:09:54.398Z,7.60
2023-04-10T11:12:24.322Z,7.27
2023-04-10T11:15:01.972Z,7.47
2023-04-10T11:17:52.032Z,6.80
2023-04-10T11:20:21.954Z,6.83
2023-04-10T11:23:12.088Z,6.57
2023-04-10T11:25:55.718Z,6.87
2023-04-10T11:28:39.535Z,7.00
2023-04-10T11:31:19.957Z,7.30
2023-04-10T11:34:13.094Z,7.50
2023-04-10T11:36:42.560Z,5.53
2023-04-10T11:39:13.191Z,6.87
2023-04-10T11:41:44.848Z,6.90
2023-04-10T11:44:13.660Z,5.70
2023-04-10T11:46:48.281Z,5.90
2023-04-10T11:49:23.343Z,5.40
2023-04-10T11:51:51.307Z,7.37
2023-04-10T11:54:23.400Z,6.50
2023-04-10T11:56:58.799Z,6.57
2023-04-10T11:59:25.960Z,6.67
2023-04-10T12:01:55.850Z,6.20
2023-04-10T12:04:23.868Z,5.80
2023-04-10T12:06:52.795Z,6.30
2023-04-10T12:09:21.260Z,4.97
2023-04-10T12:11:52.052Z,6.40
2023-04-10T12:14:23.016Z,5.60
2023-04-10T12:16:50.548Z,5.67
2023-04-10T12:19:18.006Z,6.10
2023-04-10T12:21:45.787Z,4.70
2023-04-10T12:24:33.721Z,5.80
2023-04-10T12:27:01.457Z,6.13
2023-04-10T12:29:28.200Z,6.23
2023-04-10T12:31:54.869Z,10.03
2023-04-10T12:34:21.486Z,8.00
2023-04-10T12:36:53.876Z,5.13
2023-04-10T12:39:25.006Z,5.50
2023-04-10T12:41:51.929Z,5.50
2023-04-10T12:44:19.258Z,6.47
2023-04-10T12:46:46.112Z,5.77
2023-04-10T12:49:15.062Z,5.60
2023-04-10T12:51:46.395Z,6.00
2023-04-10T12:54:31.128Z,5.77
2023-04-10T12:56:58.253Z,5.40
2023-04-10T12:59:26.578Z,6.63
2023-04-10T13:01:53.878Z,5.73
2023-04-10T13:04:20.823Z,5.40
2023-04-10T13:06:48.919Z,4.30
2023-04-10T13:09:17.538Z,35.70
2023-04-10T13:11:45.260Z,11.10
2023-04-10T13:14:12.956Z,7.70
2023-04-10T13:16:39.769Z,5.17
2023-04-10T13:19:06.547Z,7.67
2023-04-10T13:21:33.182Z,11.47
2023-04-10T13:23:59.818Z,10.80
2023-04-10T13:26:26.441Z,7.70
2023-04-10T13:28:53.292Z,6.20
2023-04-10T13:31:20.517Z,4.37
2023-04-10T13:33:48.254Z,4.67
2023-04-10T13:36:15.459Z,5.33
2023-04-10T13:38:42.364Z,4.90
2023-04-10T13:41:09.334Z,4.63
2023-04-10T13:43:36.772Z,4.10
2023-04-10T13:46:03.645Z,4.67
2023-04-10T13:48:40.205Z,4.80
2023-04-10T13:51:08.475Z,4.30
2023-04-10T13:53:35.604Z,4.07
2023-04-10T13:56:02.497Z,4.83
2023-04-10T13:58:31.849Z,4.53
2023-04-10T14:00:58.903Z,4.80
2023-04-10T14:03:25.703Z,4.60
2023-04-10T14:05:52.923Z,4.20
2023-04-10T14:08:19.892Z,5.30
2023-04-10T14:10:51.400Z,4.90
2023-04-10T14:13:18.618Z,4.50
2023-04-10T14:15:45.378Z,4.77
2023-04-10T14:18:12.336Z,4.70
2023-04-10T14:20:39.111Z,4.20
2023-04-10T14:23:05.834Z,3.77
2023-04-10T14:25:32.520Z,3.97
2023-04-10T14:27:59.779Z,4.10
2023-04-10T14:30:30.868Z,4.50
2023-04-10T14:32:57.708Z,4.33
2023-04-10T14:35:24.506Z,4.20
2023-04-10T14:37:51.107Z,5.70
2023-04-10T14:40:17.752Z,4.40
2023-04-10T14:42:44.392Z,4.87
2023-04-10T14:45:11.161Z,4.77
2023-04-10T14:47:37.868Z,4.83
2023-04-10T14:50:04.834Z,4.90
2023-04-10T14:52:31.578Z,4.43
2023-04-10T14:54:58.200Z,5.70
2023-04-10T14:57:24.843Z,5.17
2023-04-10T14:59:51.493Z,5.00
2023-04-10T15:02:18.112Z,4.90
2023-04-10T15:04:44.760Z,5.03
2023-04-10T15:07:12.883Z,5.87
2023-04-10T15:09:40.764Z,5.20
2023-04-10T15:12:07.606Z,6.07
2023-04-10T15:14:34.442Z,6.60
2023-04-10T15:17:01.155Z,6.10
2023-04-10T15:19:27.862Z,5.70
2023-04-10T15:21:55.382Z,5.90
2023-04-10T15:24:22.040Z,5.97
2023-04-10T15:26:48.701Z,6.17
2023-04-10T15:29:15.353Z,6.33
2023-04-10T15:31:42.029Z,6.53
2023-04-10T15:34:09.120Z,5.40
2023-04-10T15:36:35.760Z,5.70
2023-04-10T15:39:06.262Z,5.87
2023-04-10T15:41:33.258Z,6.03
2023-04-10T15:44:00.201Z,6.47
2023-04-10T15:46:27.180Z,4.67
2023-04-10T15:48:53.930Z,4.67
2023-04-10T15:51:21.346Z,4.17
2023-04-10T15:53:48.019Z,6.00
2023-04-10T15:56:16.055Z,5.63
2023-04-10T15:58:42.728Z,5.43
2023-04-10T16:01:09.422Z,5.17
2023-04-10T16:03:36.541Z,4.47
2023-04-10T16:06:03.641Z,4.77
2023-04-10T16:08:30.365Z,5.37
2023-04-10T16:10:57.062Z,4.67
2023-04-10T16:13:23.706Z,4.87
2023-04-10T16:15:50.522Z,5.63
2023-04-10T16:18:17.187Z,5.47
2023-04-10T16:20:44.136Z,5.33
2023-04-10T16:23:10.794Z,4.10
2023-04-10T16:25:37.405Z,4.47
2023-04-10T16:28:07.679Z,4.50
2023-04-10T16:30:35.549Z,4.70
2023-04-10T16:33:03.982Z,4.80
2023-04-10T16:35:30.853Z,4.83
2023-04-10T16:37:57.657Z,4.83
2023-04-10T16:40:27.650Z,4.37
2023-04-10T16:42:54.310Z,5.20
2023-04-10T16:45:20.919Z,4.17
2023-04-10T16:47:47.688Z,4.60
2023-04-10T16:50:14.364Z,4.63
2023-04-10T16:52:41.221Z,4.80
2023-04-10T16:55:08.216Z,5.50
2023-04-10T16:57:34.847Z,4.23
2023-04-10T17:00:01.863Z,6.00
2023-04-10T17:02:30.288Z,6.00
2023-04-10T17:04:57.030Z,5.17
2023-04-10T17:07:24.050Z,4.60
2023-04-10T17:09:51.274Z,5.53
2023-04-10T17:12:17.951Z,5.00
2023-04-10T17:14:44.866Z,5.27
2023-04-10T17:17:11.620Z,5.03
2023-04-10T17:19:38.621Z,5.60
2023-04-10T17:22:06.867Z,5.07
2023-04-10T17:24:33.458Z,4.63
2023-04-10T17:27:01.981Z,11.50
2023-04-10T17:29:28.567Z,7.93
2023-04-10T17:31:55.288Z,8.27
2023-04-10T17:34:21.894Z,9.27
2023-04-10T17:36:49.648Z,16.13
2023-04-10T17:39:16.352Z,7.17
2023-04-10T17:41:43.163Z,14.17
2023-04-10T17:44:10.586Z,4.67
2023-04-10T17:46:37.209Z,6.27
2023-04-10T17:49:04.542Z,8.67
2023-04-10T17:51:31.696Z,5.57
2023-04-10T17:53:58.420Z,8.57
2023-04-10T17:56:25.316Z,7.33
2023-04-10T17:58:54.818Z,7.53
2023-04-10T18:01:29.350Z,9.90
2023-04-10T18:04:00.185Z,5.93
2023-04-10T18:06:27.528Z,6.70
2023-04-10T18:08:55.864Z,8.57
2023-04-10T18:11:23.906Z,10.30
2023-04-10T18:13:50.585Z,8.13
2023-04-10T18:16:20.314Z,7.73
2023-04-10T18:18:47.089Z,7.50
2023-04-10T18:21:13.821Z,7.40
2023-04-10T18:23:40.626Z,7.03
2023-04-10T18:26:07.626Z,7.10
2023-04-10T18:28:35.907Z,7.77
2023-04-10T18:31:02.683Z,6.87
2023-04-10T18:33:29.415Z,11.80
2023-04-10T18:35:59.587Z,7.73
2023-04-10T18:38:26.899Z,7.20
2023-04-10T18:40:59.715Z,7.30
2023-04-10T18:43:29.741Z,7.80
2023-04-10T18:45:56.968Z,7.00
2023-04-10T18:48:23.730Z,8.40
2023-04-10T18:50:53.316Z,9.37
2023-04-10T18:53:21.233Z,8.03
2023-04-10T18:55:51.942Z,7.80
2023-04-10T18:58:22.577Z,7.00
2023-04-10T19:00:49.596Z,8.63
2023-04-10T19:03:16.617Z,7.23
2023-04-10T19:05:43.642Z,7.40
2023-04-10T19:08:14.160Z,8.10
2023-04-10T19:10:42.115Z,7.50
2023-04-10T19:13:11.553Z,19.80
2023-04-10T19:15:42.440Z,12.63
2023-04-10T19:18:09.292Z,9.37
2023-04-10T19:20:52.451Z,7.50
2023-04-10T19:23:21.153Z,8.77
2023-04-10T19:25:54.947Z,9.67
2023-04-10T19:28:23.647Z,7.90
2023-04-10T19:30:50.488Z,9.20
2023-04-10T19:33:17.411Z,10.83
2023-04-10T19:35:44.242Z,9.80
2023-04-10T19:38:11.063Z,8.50
2023-04-10T19:40:37.778Z,8.07
2023-04-10T19:43:04.392Z,8.90
2023-04-10T19:45:32.907Z,8.57
2023-04-10T19:48:00.157Z,7.30
2023-04-10T19:50:29.474Z,9.83
2023-04-10T19:52:56.527Z,7.77
2023-04-10T19:55:23.470Z,9.80
2023-04-10T19:57:50.668Z,11.37
2023-04-10T20:00:17.844Z,8.90
2023-04-10T20:02:44.771Z,7.67
2023-04-10T20:05:11.645Z,7.30
2023-04-10T20:07:38.390Z,6.63
2023-04-10T20:10:05.424Z,9.00
2023-04-10T20:12:33.167Z,8.10
2023-04-10T20:15:00.603Z,8.60
2023-04-10T20:17:27.843Z,8.70
2023-04-10T20:19:54.599Z,7.83
2023-04-10T20:22:21.324Z,8.77
2023-04-10T20:24:47.962Z,7.23
2023-04-10T20:27:17.930Z,7.77
2023-04-10T20:29:44.564Z,8.17
2023-04-10T20:32:11.191Z,7.13
2023-04-10T20:34:38.167Z,7.87
2023-04-10T20:37:05.774Z,8.30
2023-04-10T20:39:33.614Z,14.17
2023-04-10T20:42:00.273Z,13.70
2023-04-10T20:44:27.019Z,23.70
2023-04-10T20:46:53.802Z,12.77
2023-04-10T20:49:20.451Z,22.00
2023-04-10T20:51:47.373Z,9.60
2023-04-10T20:54:14.099Z,7.73
2023-04-10T20:56:43.676Z,7.13
2023-04-10T20:59:11.199Z,6.00
2023-04-10T21:01:38.343Z,8.20
2023-04-10T21:04:05.639Z,7.00
2023-04-10T21:06:33.509Z,7.77
2023-04-10T21:09:00.417Z,7.60
2023-04-10T21:11:27.469Z,6.60
2023-04-10T21:13:54.473Z,7.03
2023-04-10T21:16:21.210Z,6.73
2023-04-10T21:18:48.017Z,7.50
2023-04-10T21:21:14.911Z,9.23
2023-04-10T21:23:41.526Z,9.27
2023-04-10T21:26:08.336Z,11.70
2023-04-10T21:28:35.036Z,11.03
2023-04-10T21:31:01.729Z,7.97
2023-04-10T21:33:28.395Z,8.97
2023-04-10T21:35:55.505Z,10.83
2023-04-10T21:38:23.522Z,5.80
2023-04-10T21:40:51.315Z,4.60
2023-04-10T21:43:18.262Z,4.80
2023-04-10T21:45:44.894Z,3.20
2023-04-10T21:48:11.875Z,3.90
2023-04-10T21:50:38.552Z,3.73
2023-04-10T21:53:05.244Z,3.87
2023-04-10T21:55:31.854Z,3.50
2023-04-10T21:57:58.452Z,3.00
2023-04-10T22:00:25.194Z,3.03
2023-04-10T22:02:52.222Z,2.67
2023-04-10T22:05:19.260Z,3.27
2023-04-10T22:07:45.943Z,3.43
2023-04-10T22:10:12.613Z,3.10
2023-04-10T22:12:39.274Z,4.07
2023-04-10T22:15:07.825Z,3.13
2023-04-10T22:17:34.628Z,2.73
2023-04-10T22:20:01.701Z,3.70
2023-04-10T22:22:28.306Z,2.93
2023-04-10T22:24:55.044Z,2.80
2023-04-10T22:27:23.359Z,3.13
2023-04-10T22:30:02.161Z,3.30
2023-04-10T22:32:30.336Z,3.90
2023-04-10T22:34:58.852Z,3.30
2023-04-10T22:37:25.865Z,3.50
2023-04-10T22:39:52.791Z,3.70
2023-04-10T22:42:19.399Z,4.37
2023-04-10T22:44:45.998Z,4.57
2023-04-10T22:47:12.659Z,3.60
2023-04-10T22:49:39.298Z,3.40
2023-04-10T22:52:05.903Z,5.00
2023-04-10T22:54:32.532Z,4.13
2023-04-10T22:56:59.346Z,4.40
2023-04-10T22:59:26.013Z,3.73
2023-04-10T23:01:52.669Z,3.27
2023-04-10T23:04:19.456Z,3.87
2023-04-10T23:06:46.074Z,3.73
2023-04-10T23:09:12.923Z,4.20
2023-04-10T23:11:39.511Z,4.00
2023-04-10T23:14:06.160Z,5.00
2023-04-10T23:16:32.800Z,3.10
2023-04-10T23:18:59.540Z,3.10
2023-04-10T23:21:27.123Z,3.00
2023-04-10T23:23:53.777Z,3.70
2023-04-10T23:26:20.768Z,3.73
2023-04-10T23:28:47.611Z,3.47
2023-04-10T23:31:14.542Z,3.30
2023-04-10T23:33:41.322Z,3.73
2023-04-10T23:36:08.322Z,3.63
2023-04-10T23:38:35.100Z,2.97
2023-04-10T23:41:02.910Z,3.20
2023-04-10T23:43:29.553Z,3.33
2023-04-10T23:45:56.242Z,3.50
2023-04-10T23:48:22.958Z,2.90
2023-04-10T23:50:49.573Z,2.67
2023-04-10T23:53:16.242Z,2.20
2023-04-10T23:55:43.191Z,3.03
2023-04-10T23:58:10.061Z,2.77
